sensor_id;sensor_type;location;lat;lon;timestamp;P1;durP1;ratioP1;P2;durP2;ratioP2
72113;SDS011;59989;46.220;19.888;2023-07-31T00:11:25;1.15;;;0.40;;
72113;SDS011;59989;46.220;19.888;2023-07-31T00:14:31;1.13;;;0.40;;
72113;SDS011;59989;46.220;19.888;2023-07-31T00:17:33;1.30;;;0.43;;
72113;SDS011;59989;46.220;19.888;2023-07-31T00:20:36;1.10;;;0.40;;
72113;SDS011;59989;46.220;19.888;2023-07-31T00:23:38;1.17;;;0.47;;
72113;SDS011;59989;46.220;19.888;2023-07-31T00:26:41;1.10;;;0.40;;
72113;SDS011;59989;46.220;19.888;2023-07-31T00:29:43;0.90;;;0.30;;
72113;SDS011;59989;46.220;19.888;2023-07-31T00:32:45;0.93;;;0.32;;
72113;SDS011;59989;46.220;19.888;2023-07-31T00:35:48;1.37;;;0.40;;
72113;SDS011;59989;46.220;19.888;2023-07-31T00:38:51;1.40;;;0.40;;
72113;SDS011;59989;46.220;19.888;2023-07-31T00:41:54;1.23;;;0.40;;
72113;SDS011;59989;46.220;19.888;2023-07-31T00:44:56;0.88;;;0.30;;
72113;SDS011;59989;46.220;19.888;2023-07-31T00:48:00;0.90;;;0.30;;
72113;SDS011;59989;46.220;19.888;2023-07-31T00:51:03;1.13;;;0.30;;
72113;SDS011;59989;46.220;19.888;2023-07-31T00:54:06;1.30;;;0.50;;
72113;SDS011;59989;46.220;19.888;2023-07-31T00:57:09;1.00;;;0.30;;
72113;SDS011;59989;46.220;19.888;2023-07-31T01:00:11;2.15;;;1.00;;
72113;SDS011;59989;46.220;19.888;2023-07-31T01:03:14;0.88;;;0.30;;
72113;SDS011;59989;46.220;19.888;2023-07-31T01:12:53;2.28;;;0.95;;
72113;SDS011;59989;46.220;19.888;2023-07-31T01:15:56;1.25;;;0.45;;
72113;SDS011;59989;46.220;19.888;2023-07-31T01:18:58;1.33;;;0.50;;
72113;SDS011;59989;46.220;19.888;2023-07-31T01:31:54;1.25;;;0.50;;
72113;SDS011;59989;46.220;19.888;2023-07-31T01:34:59;0.93;;;0.30;;
72113;SDS011;59989;46.220;19.888;2023-07-31T01:38:01;0.80;;;0.30;;
72113;SDS011;59989;46.220;19.888;2023-07-31T01:41:04;0.70;;;0.30;;
72113;SDS011;59989;46.220;19.888;2023-07-31T01:44:07;1.45;;;0.50;;
72113;SDS011;59989;46.220;19.888;2023-07-31T01:47:09;1.08;;;0.32;;
72113;SDS011;59989;46.220;19.888;2023-07-31T01:50:12;0.82;;;0.30;;
72113;SDS011;59989;46.220;19.888;2023-07-31T01:53:14;1.03;;;0.40;;
72113;SDS011;59989;46.220;19.888;2023-07-31T01:56:17;0.90;;;0.30;;
72113;SDS011;59989;46.220;19.888;2023-07-31T01:59:20;1.95;;;0.68;;
72113;SDS011;59989;46.220;19.888;2023-07-31T02:02:22;1.20;;;0.40;;
72113;SDS011;59989;46.220;19.888;2023-07-31T02:05:26;0.90;;;0.35;;
72113;SDS011;59989;46.220;19.888;2023-07-31T02:08:28;1.00;;;0.30;;
72113;SDS011;59989;46.220;19.888;2023-07-31T02:11:31;1.63;;;0.57;;
72113;SDS011;59989;46.220;19.888;2023-07-31T02:14:34;1.67;;;0.55;;
72113;SDS011;59989;46.220;19.888;2023-07-31T02:17:37;1.83;;;0.68;;
72113;SDS011;59989;46.220;19.888;2023-07-31T02:20:39;1.00;;;0.30;;
72113;SDS011;59989;46.220;19.888;2023-07-31T02:23:42;1.30;;;0.50;;
72113;SDS011;59989;46.220;19.888;2023-07-31T02:26:46;1.67;;;0.50;;
72113;SDS011;59989;46.220;19.888;2023-07-31T02:29:48;1.42;;;0.40;;
72113;SDS011;59989;46.220;19.888;2023-07-31T02:32:51;0.63;;;0.28;;
72113;SDS011;59989;46.220;19.888;2023-07-31T02:35:53;0.80;;;0.30;;
72113;SDS011;59989;46.220;19.888;2023-07-31T02:38:57;1.00;;;0.40;;
72113;SDS011;59989;46.220;19.888;2023-07-31T02:42:00;1.13;;;0.40;;
72113;SDS011;59989;46.220;19.888;2023-07-31T02:45:03;0.70;;;0.30;;
72113;SDS011;59989;46.220;19.888;2023-07-31T02:48:05;1.52;;;0.80;;
72113;SDS011;59989;46.220;19.888;2023-07-31T02:51:08;1.13;;;0.40;;
72113;SDS011;59989;46.220;19.888;2023-07-31T02:54:10;1.23;;;0.40;;
72113;SDS011;59989;46.220;19.888;2023-07-31T02:57:13;1.27;;;0.40;;
72113;SDS011;59989;46.220;19.888;2023-07-31T03:00:15;1.00;;;0.40;;
72113;SDS011;59989;46.220;19.888;2023-07-31T03:03:18;1.00;;;0.30;;
72113;SDS011;59989;46.220;19.888;2023-07-31T03:06:21;1.17;;;0.40;;
72113;SDS011;59989;46.220;19.888;2023-07-31T03:09:23;0.97;;;0.30;;
72113;SDS011;59989;46.220;19.888;2023-07-31T03:12:26;1.00;;;0.37;;
72113;SDS011;59989;46.220;19.888;2023-07-31T03:15:28;1.25;;;0.55;;
72113;SDS011;59989;46.220;19.888;2023-07-31T03:18:31;1.15;;;0.40;;
72113;SDS011;59989;46.220;19.888;2023-07-31T03:21:34;1.00;;;0.30;;
72113;SDS011;59989;46.220;19.888;2023-07-31T03:24:36;1.17;;;0.43;;
72113;SDS011;59989;46.220;19.888;2023-07-31T03:27:39;1.10;;;0.30;;
72113;SDS011;59989;46.220;19.888;2023-07-31T03:30:41;1.08;;;0.38;;
72113;SDS011;59989;46.220;19.888;2023-07-31T03:33:44;0.90;;;0.30;;
72113;SDS011;59989;46.220;19.888;2023-07-31T03:36:47;1.17;;;0.43;;
72113;SDS011;59989;46.220;19.888;2023-07-31T03:39:49;0.73;;;0.30;;
72113;SDS011;59989;46.220;19.888;2023-07-31T03:42:52;0.97;;;0.30;;
72113;SDS011;59989;46.220;19.888;2023-07-31T03:45:54;0.80;;;0.30;;
72113;SDS011;59989;46.220;19.888;2023-07-31T03:48:57;0.85;;;0.30;;
72113;SDS011;59989;46.220;19.888;2023-07-31T03:51:59;1.00;;;0.45;;
72113;SDS011;59989;46.220;19.888;2023-07-31T03:55:02;2.53;;;0.73;;
72113;SDS011;59989;46.220;19.888;2023-07-31T03:58:04;1.73;;;0.60;;
72113;SDS011;59989;46.220;19.888;2023-07-31T04:01:07;1.88;;;0.73;;
72113;SDS011;59989;46.220;19.888;2023-07-31T04:04:09;1.50;;;0.43;;
72113;SDS011;59989;46.220;19.888;2023-07-31T04:07:12;1.10;;;0.40;;
72113;SDS011;59989;46.220;19.888;2023-07-31T04:10:14;1.63;;;0.60;;
72113;SDS011;59989;46.220;19.888;2023-07-31T04:13:17;0.80;;;0.30;;
72113;SDS011;59989;46.220;19.888;2023-07-31T04:16:19;1.85;;;0.77;;
72113;SDS011;59989;46.220;19.888;2023-07-31T04:19:22;1.00;;;0.30;;
72113;SDS011;59989;46.220;19.888;2023-07-31T04:22:24;0.90;;;0.30;;
72113;SDS011;59989;46.220;19.888;2023-07-31T04:25:27;1.40;;;0.50;;
72113;SDS011;59989;46.220;19.888;2023-07-31T04:28:29;1.30;;;0.50;;
72113;SDS011;59989;46.220;19.888;2023-07-31T04:31:34;1.42;;;0.40;;
72113;SDS011;59989;46.220;19.888;2023-07-31T04:34:40;1.42;;;0.50;;
72113;SDS011;59989;46.220;19.888;2023-07-31T04:37:43;1.50;;;0.60;;
72113;SDS011;59989;46.220;19.888;2023-07-31T04:40:48;1.27;;;0.37;;
72113;SDS011;59989;46.220;19.888;2023-07-31T04:43:51;1.13;;;0.37;;
72113;SDS011;59989;46.220;19.888;2023-07-31T04:46:54;1.58;;;0.75;;
72113;SDS011;59989;46.220;19.888;2023-07-31T04:49:56;1.92;;;0.80;;
72113;SDS011;59989;46.220;19.888;2023-07-31T04:52:59;1.58;;;0.52;;
72113;SDS011;59989;46.220;19.888;2023-07-31T04:56:01;2.65;;;0.88;;
72113;SDS011;59989;46.220;19.888;2023-07-31T04:59:04;1.63;;;0.57;;
72113;SDS011;59989;46.220;19.888;2023-07-31T05:02:08;1.17;;;0.40;;
72113;SDS011;59989;46.220;19.888;2023-07-31T05:05:10;1.23;;;0.40;;
72113;SDS011;59989;46.220;19.888;2023-07-31T05:08:13;1.65;;;0.30;;
72113;SDS011;59989;46.220;19.888;2023-07-31T05:11:16;1.25;;;0.50;;
72113;SDS011;59989;46.220;19.888;2023-07-31T05:14:19;1.20;;;0.40;;
72113;SDS011;59989;46.220;19.888;2023-07-31T05:17:22;2.05;;;0.68;;
72113;SDS011;59989;46.220;19.888;2023-07-31T05:20:25;1.15;;;0.35;;
72113;SDS011;59989;46.220;19.888;2023-07-31T05:23:27;1.83;;;0.60;;
72113;SDS011;59989;46.220;19.888;2023-07-31T05:26:30;1.48;;;0.52;;
72113;SDS011;59989;46.220;19.888;2023-07-31T05:29:32;1.10;;;0.33;;
72113;SDS011;59989;46.220;19.888;2023-07-31T05:32:35;1.63;;;0.50;;
72113;SDS011;59989;46.220;19.888;2023-07-31T05:35:38;1.00;;;0.30;;
72113;SDS011;59989;46.220;19.888;2023-07-31T05:38:41;1.10;;;0.40;;
72113;SDS011;59989;46.220;19.888;2023-07-31T05:41:45;2.13;;;0.80;;
72113;SDS011;59989;46.220;19.888;2023-07-31T05:44:49;1.20;;;0.40;;
72113;SDS011;59989;46.220;19.888;2023-07-31T05:47:52;1.00;;;0.38;;
72113;SDS011;59989;46.220;19.888;2023-07-31T05:50:54;0.80;;;0.30;;
72113;SDS011;59989;46.220;19.888;2023-07-31T05:53:57;1.10;;;0.30;;
72113;SDS011;59989;46.220;19.888;2023-07-31T05:56:59;1.30;;;0.40;;
72113;SDS011;59989;46.220;19.888;2023-07-31T06:00:02;1.30;;;0.50;;
72113;SDS011;59989;46.220;19.888;2023-07-31T06:03:06;0.90;;;0.30;;
72113;SDS011;59989;46.220;19.888;2023-07-31T06:06:08;1.58;;;0.65;;
72113;SDS011;59989;46.220;19.888;2023-07-31T06:09:11;1.02;;;0.40;;
72113;SDS011;59989;46.220;19.888;2023-07-31T06:12:14;1.20;;;0.50;;
72113;SDS011;59989;46.220;19.888;2023-07-31T06:15:16;1.93;;;0.60;;
72113;SDS011;59989;46.220;19.888;2023-07-31T06:18:21;2.15;;;0.68;;
72113;SDS011;59989;46.220;19.888;2023-07-31T06:21:23;1.85;;;0.85;;
72113;SDS011;59989;46.220;19.888;2023-07-31T06:24:26;1.15;;;0.40;;
72113;SDS011;59989;46.220;19.888;2023-07-31T06:27:28;0.90;;;0.30;;
72113;SDS011;59989;46.220;19.888;2023-07-31T06:30:31;1.83;;;0.57;;
72113;SDS011;59989;46.220;19.888;2023-07-31T06:33:34;1.20;;;0.40;;
72113;SDS011;59989;46.220;19.888;2023-07-31T06:36:36;0.98;;;0.30;;
72113;SDS011;59989;46.220;19.888;2023-07-31T06:39:39;1.20;;;0.45;;
72113;SDS011;59989;46.220;19.888;2023-07-31T06:42:42;1.23;;;0.40;;
72113;SDS011;59989;46.220;19.888;2023-07-31T06:45:44;1.30;;;0.50;;
72113;SDS011;59989;46.220;19.888;2023-07-31T06:48:47;1.48;;;0.55;;
72113;SDS011;59989;46.220;19.888;2023-07-31T06:51:50;1.48;;;0.60;;
72113;SDS011;59989;46.220;19.888;2023-07-31T06:55:02;1.30;;;0.40;;
72113;SDS011;59989;46.220;19.888;2023-07-31T06:58:31;1.13;;;0.40;;
72113;SDS011;59989;46.220;19.888;2023-07-31T07:01:33;1.00;;;0.40;;
72113;SDS011;59989;46.220;19.888;2023-07-31T07:04:36;1.83;;;0.77;;
72113;SDS011;59989;46.220;19.888;2023-07-31T07:07:39;1.30;;;0.50;;
72113;SDS011;59989;46.220;19.888;2023-07-31T07:10:42;1.10;;;0.40;;
72113;SDS011;59989;46.220;19.888;2023-07-31T07:13:44;1.67;;;0.88;;
72113;SDS011;59989;46.220;19.888;2023-07-31T07:16:50;1.57;;;0.47;;
72113;SDS011;59989;46.220;19.888;2023-07-31T07:19:53;1.35;;;0.50;;
72113;SDS011;59989;46.220;19.888;2023-07-31T07:22:56;1.40;;;0.50;;
72113;SDS011;59989;46.220;19.888;2023-07-31T07:25:59;1.70;;;0.60;;
72113;SDS011;59989;46.220;19.888;2023-07-31T07:29:02;1.98;;;0.70;;
72113;SDS011;59989;46.220;19.888;2023-07-31T07:32:04;2.17;;;0.80;;
72113;SDS011;59989;46.220;19.888;2023-07-31T07:35:08;1.30;;;0.43;;
72113;SDS011;59989;46.220;19.888;2023-07-31T07:38:11;1.75;;;0.60;;
72113;SDS011;59989;46.220;19.888;2023-07-31T07:41:13;1.45;;;0.50;;
72113;SDS011;59989;46.220;19.888;2023-07-31T07:44:15;1.63;;;0.60;;
72113;SDS011;59989;46.220;19.888;2023-07-31T07:47:18;1.17;;;0.40;;
72113;SDS011;59989;46.220;19.888;2023-07-31T07:50:20;1.45;;;0.50;;
72113;SDS011;59989;46.220;19.888;2023-07-31T07:53:23;1.67;;;0.70;;
72113;SDS011;59989;46.220;19.888;2023-07-31T07:56:26;1.60;;;0.50;;
72113;SDS011;59989;46.220;19.888;2023-07-31T07:59:29;1.65;;;0.50;;
72113;SDS011;59989;46.220;19.888;2023-07-31T08:02:32;1.20;;;0.40;;
72113;SDS011;59989;46.220;19.888;2023-07-31T08:05:35;1.15;;;0.40;;
72113;SDS011;59989;46.220;19.888;2023-07-31T08:08:38;1.40;;;0.50;;
72113;SDS011;59989;46.220;19.888;2023-07-31T08:11:41;1.20;;;0.50;;
72113;SDS011;59989;46.220;19.888;2023-07-31T08:14:43;1.50;;;0.50;;
72113;SDS011;59989;46.220;19.888;2023-07-31T08:17:46;1.33;;;0.50;;
72113;SDS011;59989;46.220;19.888;2023-07-31T08:20:48;1.30;;;0.50;;
72113;SDS011;59989;46.220;19.888;2023-07-31T08:23:51;1.40;;;0.60;;
72113;SDS011;59989;46.220;19.888;2023-07-31T08:26:53;1.70;;;0.60;;
72113;SDS011;59989;46.220;19.888;2023-07-31T08:29:56;1.42;;;0.40;;
72113;SDS011;59989;46.220;19.888;2023-07-31T08:32:59;1.50;;;0.50;;
72113;SDS011;59989;46.220;19.888;2023-07-31T08:36:03;1.33;;;0.50;;
72113;SDS011;59989;46.220;19.888;2023-07-31T08:39:07;1.63;;;0.57;;
72113;SDS011;59989;46.220;19.888;2023-07-31T08:42:09;1.65;;;0.50;;
72113;SDS011;59989;46.220;19.888;2023-07-31T08:45:15;1.73;;;0.60;;
72113;SDS011;59989;46.220;19.888;2023-07-31T08:48:20;2.00;;;0.70;;
72113;SDS011;59989;46.220;19.888;2023-07-31T08:51:24;1.70;;;0.60;;
72113;SDS011;59989;46.220;19.888;2023-07-31T08:54:27;1.45;;;0.47;;
72113;SDS011;59989;46.220;19.888;2023-07-31T08:57:37;2.00;;;0.63;;
72113;SDS011;59989;46.220;19.888;2023-07-31T09:00:43;1.27;;;0.40;;
72113;SDS011;59989;46.220;19.888;2023-07-31T09:03:48;1.67;;;0.60;;
72113;SDS011;59989;46.220;19.888;2023-07-31T09:06:54;1.70;;;0.68;;
72113;SDS011;59989;46.220;19.888;2023-07-31T09:10:02;1.50;;;0.50;;
72113;SDS011;59989;46.220;19.888;2023-07-31T09:13:05;1.50;;;0.57;;
72113;SDS011;59989;46.220;19.888;2023-07-31T09:16:11;1.50;;;0.50;;
72113;SDS011;59989;46.220;19.888;2023-07-31T09:19:14;1.70;;;0.60;;
72113;SDS011;59989;46.220;19.888;2023-07-31T09:22:34;1.30;;;0.45;;
72113;SDS011;59989;46.220;19.888;2023-07-31T09:25:38;2.15;;;0.52;;
72113;SDS011;59989;46.220;19.888;2023-07-31T09:28:41;3.15;;;0.80;;
72113;SDS011;59989;46.220;19.888;2023-07-31T09:31:44;1.40;;;0.50;;
72113;SDS011;59989;46.220;19.888;2023-07-31T09:34:47;1.40;;;0.50;;
72113;SDS011;59989;46.220;19.888;2023-07-31T09:37:50;1.58;;;0.60;;
72113;SDS011;59989;46.220;19.888;2023-07-31T09:40:53;1.60;;;0.60;;
72113;SDS011;59989;46.220;19.888;2023-07-31T09:43:56;1.52;;;0.50;;
72113;SDS011;59989;46.220;19.888;2023-07-31T09:46:58;1.40;;;0.50;;
72113;SDS011;59989;46.220;19.888;2023-07-31T09:50:01;1.33;;;0.50;;
72113;SDS011;59989;46.220;19.888;2023-07-31T09:53:09;2.08;;;0.70;;
72113;SDS011;59989;46.220;19.888;2023-07-31T09:56:12;1.70;;;0.60;;
72113;SDS011;59989;46.220;19.888;2023-07-31T09:59:16;1.95;;;0.65;;
72113;SDS011;59989;46.220;19.888;2023-07-31T10:02:23;1.80;;;0.60;;
72113;SDS011;59989;46.220;19.888;2023-07-31T10:05:30;1.70;;;0.60;;
72113;SDS011;59989;46.220;19.888;2023-07-31T10:08:36;2.35;;;0.80;;
72113;SDS011;59989;46.220;19.888;2023-07-31T10:11:43;1.90;;;0.70;;
72113;SDS011;59989;46.220;19.888;2023-07-31T10:14:58;1.80;;;0.60;;
72113;SDS011;59989;46.220;19.888;2023-07-31T10:18:02;1.85;;;0.65;;
72113;SDS011;59989;46.220;19.888;2023-07-31T10:21:07;2.30;;;0.83;;
72113;SDS011;59989;46.220;19.888;2023-07-31T10:24:10;4.90;;;0.73;;
72113;SDS011;59989;46.220;19.888;2023-07-31T10:27:14;1.50;;;0.50;;
72113;SDS011;59989;46.220;19.888;2023-07-31T10:30:17;1.77;;;0.68;;
72113;SDS011;59989;46.220;19.888;2023-07-31T10:33:22;1.52;;;0.52;;
72113;SDS011;59989;46.220;19.888;2023-07-31T10:36:25;2.03;;;0.63;;
72113;SDS011;59989;46.220;19.888;2023-07-31T10:39:35;1.70;;;0.60;;
72113;SDS011;59989;46.220;19.888;2023-07-31T10:42:48;1.67;;;0.60;;
72113;SDS011;59989;46.220;19.888;2023-07-31T10:45:51;2.20;;;0.75;;
72113;SDS011;59989;46.220;19.888;2023-07-31T10:49:00;1.80;;;0.70;;
72113;SDS011;59989;46.220;19.888;2023-07-31T10:52:08;1.70;;;0.60;;
72113;SDS011;59989;46.220;19.888;2023-07-31T10:55:16;1.70;;;0.60;;
72113;SDS011;59989;46.220;19.888;2023-07-31T10:58:27;1.80;;;0.70;;
72113;SDS011;59989;46.220;19.888;2023-07-31T11:01:49;1.92;;;0.75;;
72113;SDS011;59989;46.220;19.888;2023-07-31T11:05:15;1.80;;;0.70;;
72113;SDS011;59989;46.220;19.888;2023-07-31T11:08:21;1.73;;;0.60;;
72113;SDS011;59989;46.220;19.888;2023-07-31T11:11:25;1.88;;;0.70;;
72113;SDS011;59989;46.220;19.888;2023-07-31T11:14:28;1.80;;;0.70;;
72113;SDS011;59989;46.220;19.888;2023-07-31T11:17:30;3.10;;;0.90;;
72113;SDS011;59989;46.220;19.888;2023-07-31T11:20:33;1.83;;;0.70;;
72113;SDS011;59989;46.220;19.888;2023-07-31T11:23:37;1.80;;;0.70;;
72113;SDS011;59989;46.220;19.888;2023-07-31T11:26:47;1.60;;;0.60;;
72113;SDS011;59989;46.220;19.888;2023-07-31T11:29:59;2.45;;;1.05;;
72113;SDS011;59989;46.220;19.888;2023-07-31T11:33:03;2.75;;;0.90;;
72113;SDS011;59989;46.220;19.888;2023-07-31T11:36:13;1.83;;;0.63;;
72113;SDS011;59989;46.220;19.888;2023-07-31T11:39:17;1.90;;;0.70;;
72113;SDS011;59989;46.220;19.888;2023-07-31T11:42:20;2.00;;;0.70;;
72113;SDS011;59989;46.220;19.888;2023-07-31T11:45:24;2.22;;;0.85;;
72113;SDS011;59989;46.220;19.888;2023-07-31T11:48:29;2.13;;;0.82;;
72113;SDS011;59989;46.220;19.888;2023-07-31T11:51:36;1.80;;;0.70;;
72113;SDS011;59989;46.220;19.888;2023-07-31T11:54:39;1.90;;;0.70;;
72113;SDS011;59989;46.220;19.888;2023-07-31T11:57:42;1.83;;;0.70;;
72113;SDS011;59989;46.220;19.888;2023-07-31T12:00:46;2.00;;;0.70;;
72113;SDS011;59989;46.220;19.888;2023-07-31T12:03:50;2.25;;;0.80;;
72113;SDS011;59989;46.220;19.888;2023-07-31T12:06:53;2.30;;;0.90;;
72113;SDS011;59989;46.220;19.888;2023-07-31T12:09:59;2.23;;;0.70;;
72113;SDS011;59989;46.220;19.888;2023-07-31T12:13:06;1.90;;;0.70;;
72113;SDS011;59989;46.220;19.888;2023-07-31T12:16:15;1.85;;;0.70;;
72113;SDS011;59989;46.220;19.888;2023-07-31T12:19:18;2.10;;;0.80;;
72113;SDS011;59989;46.220;19.888;2023-07-31T12:22:21;1.98;;;0.75;;
72113;SDS011;59989;46.220;19.888;2023-07-31T12:25:28;3.07;;;1.17;;
72113;SDS011;59989;46.220;19.888;2023-07-31T12:28:35;1.73;;;0.70;;
72113;SDS011;59989;46.220;19.888;2023-07-31T12:31:45;2.10;;;0.73;;
72113;SDS011;59989;46.220;19.888;2023-07-31T12:34:48;2.05;;;0.70;;
72113;SDS011;59989;46.220;19.888;2023-07-31T12:37:50;2.63;;;0.98;;
72113;SDS011;59989;46.220;19.888;2023-07-31T12:40:53;2.30;;;0.90;;
72113;SDS011;59989;46.220;19.888;2023-07-31T12:43:55;2.88;;;1.10;;
72113;SDS011;59989;46.220;19.888;2023-07-31T12:46:58;2.63;;;1.05;;
72113;SDS011;59989;46.220;19.888;2023-07-31T12:50:00;2.58;;;1.00;;
72113;SDS011;59989;46.220;19.888;2023-07-31T12:53:03;2.75;;;1.02;;
72113;SDS011;59989;46.220;19.888;2023-07-31T12:56:05;2.40;;;0.90;;
72113;SDS011;59989;46.220;19.888;2023-07-31T12:59:08;2.42;;;1.00;;
72113;SDS011;59989;46.220;19.888;2023-07-31T13:02:11;4.95;;;1.40;;
72113;SDS011;59989;46.220;19.888;2023-07-31T13:05:13;2.70;;;1.10;;
72113;SDS011;59989;46.220;19.888;2023-07-31T13:08:16;2.78;;;1.10;;
72113;SDS011;59989;46.220;19.888;2023-07-31T13:11:19;2.67;;;1.10;;
72113;SDS011;59989;46.220;19.888;2023-07-31T13:14:22;3.00;;;1.20;;
72113;SDS011;59989;46.220;19.888;2023-07-31T13:17:24;3.00;;;1.10;;
72113;SDS011;59989;46.220;19.888;2023-07-31T13:20:27;3.20;;;1.30;;
72113;SDS011;59989;46.220;19.888;2023-07-31T13:23:30;2.95;;;1.20;;
72113;SDS011;59989;46.220;19.888;2023-07-31T13:26:32;2.90;;;1.13;;
72113;SDS011;59989;46.220;19.888;2023-07-31T13:29:36;3.00;;;1.20;;
72113;SDS011;59989;46.220;19.888;2023-07-31T13:32:38;3.22;;;1.30;;
72113;SDS011;59989;46.220;19.888;2023-07-31T13:35:41;2.97;;;1.20;;
72113;SDS011;59989;46.220;19.888;2023-07-31T13:38:44;3.30;;;1.38;;
72113;SDS011;59989;46.220;19.888;2023-07-31T13:41:46;3.40;;;1.40;;
72113;SDS011;59989;46.220;19.888;2023-07-31T13:44:49;3.35;;;1.40;;
72113;SDS011;59989;46.220;19.888;2023-07-31T13:47:51;2.80;;;1.10;;
72113;SDS011;59989;46.220;19.888;2023-07-31T13:50:54;3.92;;;1.60;;
72113;SDS011;59989;46.220;19.888;2023-07-31T13:53:56;4.55;;;1.67;;
72113;SDS011;59989;46.220;19.888;2023-07-31T13:56:58;3.50;;;1.43;;
72113;SDS011;59989;46.220;19.888;2023-07-31T14:00:01;3.90;;;1.80;;
72113;SDS011;59989;46.220;19.888;2023-07-31T14:03:05;3.15;;;1.30;;
72113;SDS011;59989;46.220;19.888;2023-07-31T14:06:08;3.45;;;1.40;;
72113;SDS011;59989;46.220;19.888;2023-07-31T14:09:11;3.95;;;1.77;;
72113;SDS011;59989;46.220;19.888;2023-07-31T14:12:13;3.43;;;1.40;;
72113;SDS011;59989;46.220;19.888;2023-07-31T14:15:36;3.80;;;1.50;;
72113;SDS011;59989;46.220;19.888;2023-07-31T14:18:38;3.83;;;1.52;;
72113;SDS011;59989;46.220;19.888;2023-07-31T14:21:43;3.58;;;1.50;;
72113;SDS011;59989;46.220;19.888;2023-07-31T14:24:58;4.35;;;1.85;;
72113;SDS011;59989;46.220;19.888;2023-07-31T14:28:02;4.13;;;1.87;;
72113;SDS011;59989;46.220;19.888;2023-07-31T14:31:05;4.00;;;1.70;;
72113;SDS011;59989;46.220;19.888;2023-07-31T14:34:07;4.78;;;2.10;;
72113;SDS011;59989;46.220;19.888;2023-07-31T14:37:10;3.63;;;1.55;;
72113;SDS011;59989;46.220;19.888;2023-07-31T14:40:14;4.18;;;1.80;;
72113;SDS011;59989;46.220;19.888;2023-07-31T14:43:16;3.97;;;1.70;;
72113;SDS011;59989;46.220;19.888;2023-07-31T14:46:19;4.03;;;1.70;;
72113;SDS011;59989;46.220;19.888;2023-07-31T14:49:22;2.60;;;1.00;;
72113;SDS011;59989;46.220;19.888;2023-07-31T14:52:24;3.33;;;1.38;;
72113;SDS011;59989;46.220;19.888;2023-07-31T14:55:27;2.90;;;1.17;;
72113;SDS011;59989;46.220;19.888;2023-07-31T14:58:30;3.40;;;1.40;;
72113;SDS011;59989;46.220;19.888;2023-07-31T15:01:33;3.70;;;1.60;;
72113;SDS011;59989;46.220;19.888;2023-07-31T15:04:35;3.50;;;0.93;;
72113;SDS011;59989;46.220;19.888;2023-07-31T15:07:38;3.42;;;1.20;;
72113;SDS011;59989;46.220;19.888;2023-07-31T15:10:40;2.53;;;0.90;;
72113;SDS011;59989;46.220;19.888;2023-07-31T15:13:43;3.27;;;1.37;;
72113;SDS011;59989;46.220;19.888;2023-07-31T15:16:46;3.97;;;1.67;;
72113;SDS011;59989;46.220;19.888;2023-07-31T15:19:49;2.78;;;1.08;;
72113;SDS011;59989;46.220;19.888;2023-07-31T15:22:52;2.33;;;0.90;;
72113;SDS011;59989;46.220;19.888;2023-07-31T15:25:55;2.72;;;1.05;;
72113;SDS011;59989;46.220;19.888;2023-07-31T15:29:02;3.60;;;1.50;;
72113;SDS011;59989;46.220;19.888;2023-07-31T15:32:11;3.17;;;1.30;;
72113;SDS011;59989;46.220;19.888;2023-07-31T15:35:14;2.47;;;0.90;;
72113;SDS011;59989;46.220;19.888;2023-07-31T15:38:17;3.50;;;1.42;;
72113;SDS011;59989;46.220;19.888;2023-07-31T15:41:20;3.25;;;1.33;;
72113;SDS011;59989;46.220;19.888;2023-07-31T15:44:23;2.30;;;0.90;;
72113;SDS011;59989;46.220;19.888;2023-07-31T15:47:26;3.38;;;1.40;;
72113;SDS011;59989;46.220;19.888;2023-07-31T15:50:28;3.40;;;1.40;;
72113;SDS011;59989;46.220;19.888;2023-07-31T15:53:31;3.40;;;1.40;;
72113;SDS011;59989;46.220;19.888;2023-07-31T15:56:33;3.60;;;1.50;;
72113;SDS011;59989;46.220;19.888;2023-07-31T15:59:36;3.83;;;1.70;;
72113;SDS011;59989;46.220;19.888;2023-07-31T16:02:38;3.28;;;1.35;;
72113;SDS011;59989;46.220;19.888;2023-07-31T16:05:41;3.60;;;1.50;;
72113;SDS011;59989;46.220;19.888;2023-07-31T16:08:44;2.10;;;0.80;;
72113;SDS011;59989;46.220;19.888;2023-07-31T16:11:47;2.25;;;0.90;;
72113;SDS011;59989;46.220;19.888;2023-07-31T16:14:49;2.37;;;0.90;;
72113;SDS011;59989;46.220;19.888;2023-07-31T16:17:52;1.70;;;0.60;;
72113;SDS011;59989;46.220;19.888;2023-07-31T16:20:58;2.00;;;0.70;;
72113;SDS011;59989;46.220;19.888;2023-07-31T16:24:01;1.50;;;0.60;;
72113;SDS011;59989;46.220;19.888;2023-07-31T16:27:04;1.98;;;0.70;;
72113;SDS011;59989;46.220;19.888;2023-07-31T16:30:08;1.53;;;0.50;;
72113;SDS011;59989;46.220;19.888;2023-07-31T16:33:11;1.40;;;0.50;;
72113;SDS011;59989;46.220;19.888;2023-07-31T16:36:14;1.92;;;0.70;;
72113;SDS011;59989;46.220;19.888;2023-07-31T16:39:20;1.40;;;0.50;;
72113;SDS011;59989;46.220;19.888;2023-07-31T16:42:22;1.48;;;0.50;;
72113;SDS011;59989;46.220;19.888;2023-07-31T16:45:25;2.03;;;0.80;;
72113;SDS011;59989;46.220;19.888;2023-07-31T16:48:28;1.95;;;0.70;;
72113;SDS011;59989;46.220;19.888;2023-07-31T16:51:31;1.40;;;0.50;;
72113;SDS011;59989;46.220;19.888;2023-07-31T16:54:34;1.50;;;0.50;;
72113;SDS011;59989;46.220;19.888;2023-07-31T16:57:37;1.42;;;0.50;;
72113;SDS011;59989;46.220;19.888;2023-07-31T17:00:39;1.37;;;0.50;;
72113;SDS011;59989;46.220;19.888;2023-07-31T17:03:42;1.67;;;0.50;;
72113;SDS011;59989;46.220;19.888;2023-07-31T17:06:44;1.60;;;0.52;;
72113;SDS011;59989;46.220;19.888;2023-07-31T17:09:47;1.27;;;0.40;;
72113;SDS011;59989;46.220;19.888;2023-07-31T17:12:49;1.45;;;0.47;;
72113;SDS011;59989;46.220;19.888;2023-07-31T17:15:52;1.30;;;0.50;;
72113;SDS011;59989;46.220;19.888;2023-07-31T17:18:55;1.27;;;0.40;;
72113;SDS011;59989;46.220;19.888;2023-07-31T17:21:57;1.20;;;0.40;;
72113;SDS011;59989;46.220;19.888;2023-07-31T17:25:00;1.60;;;0.50;;
72113;SDS011;59989;46.220;19.888;2023-07-31T17:28:04;1.02;;;0.40;;
72113;SDS011;59989;46.220;19.888;2023-07-31T17:31:07;1.10;;;0.40;;
72113;SDS011;59989;46.220;19.888;2023-07-31T17:34:10;1.40;;;0.50;;
72113;SDS011;59989;46.220;19.888;2023-07-31T17:37:13;2.20;;;1.35;;
72113;SDS011;59989;46.220;19.888;2023-07-31T17:40:15;1.73;;;0.60;;
72113;SDS011;59989;46.220;19.888;2023-07-31T17:43:17;1.65;;;0.60;;
72113;SDS011;59989;46.220;19.888;2023-07-31T17:46:20;2.30;;;0.60;;
72113;SDS011;59989;46.220;19.888;2023-07-31T17:49:23;1.27;;;0.40;;
72113;SDS011;59989;46.220;19.888;2023-07-31T17:52:25;1.65;;;0.60;;
72113;SDS011;59989;46.220;19.888;2023-07-31T17:55:28;1.20;;;0.40;;
72113;SDS011;59989;46.220;19.888;2023-07-31T17:58:31;1.48;;;0.50;;
72113;SDS011;59989;46.220;19.888;2023-07-31T18:01:34;1.50;;;0.53;;
72113;SDS011;59989;46.220;19.888;2023-07-31T18:04:39;1.55;;;0.60;;
72113;SDS011;59989;46.220;19.888;2023-07-31T18:07:41;1.63;;;0.60;;
72113;SDS011;59989;46.220;19.888;2023-07-31T18:10:47;1.20;;;0.40;;
72113;SDS011;59989;46.220;19.888;2023-07-31T18:13:50;2.03;;;0.50;;
72113;SDS011;59989;46.220;19.888;2023-07-31T18:16:52;1.30;;;0.40;;
72113;SDS011;59989;46.220;19.888;2023-07-31T18:19:55;0.90;;;0.40;;
72113;SDS011;59989;46.220;19.888;2023-07-31T18:22:57;1.38;;;0.50;;
72113;SDS011;59989;46.220;19.888;2023-07-31T18:26:00;1.40;;;0.50;;
72113;SDS011;59989;46.220;19.888;2023-07-31T18:29:03;1.02;;;0.40;;
72113;SDS011;59989;46.220;19.888;2023-07-31T18:32:05;1.20;;;0.40;;
72113;SDS011;59989;46.220;19.888;2023-07-31T18:35:10;1.00;;;0.40;;